Time,TemperatureF,DewpointF,PressureIn,WindDirection,WindDirectionDegrees,WindSpeedMPH,WindSpeedGustMPH,Humidity,HourlyPrecipIn,Conditions,Clouds,dailyrainin,SoftwareType,DateUTC
2013-04-21 00:00:00,47.1,27.3,30.33,East,90,2.0,3.0,46,0.00,,,0.00,meteohub,2013-04-21 04:00:00,
2013-04-21 00:01:00,47.1,27.3,30.33,East,90,2.0,3.0,46,0.00,,,0.00,meteohub,2013-04-21 04:01:00,
2013-04-21 00:02:00,47.1,27.3,30.34,East,90,2.0,3.0,46,0.00,,,0.00,meteohub,2013-04-21 04:02:00,
2013-04-21 00:07:00,47.1,27.3,30.34,East,90,2.0,3.0,46,0.00,,,0.00,meteohub,2013-04-21 04:07:00,
2013-04-21 00:12:00,46.4,27.3,30.34,SE,135,2.0,3.0,47,0.00,,,0.00,meteohub,2013-04-21 04:12:00,
2013-04-21 00:17:00,45.9,27.3,30.33,SE,135,2.0,2.0,48,0.00,,,0.00,meteohub,2013-04-21 04:17:00,
2013-04-21 00:22:00,45.1,28.6,30.34,SE,135,2.0,2.0,52,0.00,,,0.00,meteohub,2013-04-21 04:22:00,
2013-04-21 00:27:00,44.4,29.7,30.34,SW,225,2.0,2.0,56,0.00,,,0.00,meteohub,2013-04-21 04:27:00,
2013-04-21 00:31:00,43.7,29.1,30.34,North,0,2.0,2.0,56,0.00,,,0.00,meteohub,2013-04-21 04:31:00,
2013-04-21 00:37:00,43.3,28.8,30.34,East,90,3.0,3.0,56,0.00,,,0.00,meteohub,2013-04-21 04:37:00,
2013-04-21 00:41:00,43.9,28.4,30.34,South,180,1.0,3.0,54,0.00,,,0.00,meteohub,2013-04-21 04:41:00,
2013-04-21 00:47:00,44.1,28.4,30.34,North,0,2.0,3.0,54,0.00,,,0.00,meteohub,2013-04-21 04:47:00,
2013-04-21 00:52:00,44.2,28.6,30.34,SW,225,2.0,3.0,54,0.00,,,0.00,meteohub,2013-04-21 04:52:00,
2013-04-21 00:57:00,44.1,28.0,30.34,SE,135,1.0,2.0,53,0.00,,,0.00,meteohub,2013-04-21 04:57:00,
2013-04-21 01:01:00,44.2,28.2,30.34,South,180,2.0,2.0,53,0.00,,,0.00,meteohub,2013-04-21 05:01:00,
2013-04-21 01:06:00,44.8,27.7,30.34,South,180,4.0,4.0,51,0.00,,,0.00,meteohub,2013-04-21 05:06:00,
2013-04-21 01:11:00,45.5,27.5,30.34,SW,225,4.0,4.0,49,0.00,,,0.00,meteohub,2013-04-21 05:11:00,
2013-04-21 01:16:00,46.2,27.1,30.34,SW,225,3.0,6.0,47,0.00,,,0.00,meteohub,2013-04-21 05:16:00,
2013-04-21 01:21:00,46.6,27.5,30.35,SSE,158,4.0,6.0,47,0.00,,,0.00,meteohub,2013-04-21 05:21:00,
2013-04-21 01:26:00,46.8,27.1,30.35,SE,135,4.0,6.0,46,0.00,,,0.00,meteohub,2013-04-21 05:26:00,
2013-04-21 01:31:00,46.8,27.1,30.35,NW,315,4.0,4.0,46,0.00,,,0.00,meteohub,2013-04-21 05:31:00,
2013-04-21 01:36:00,46.6,27.0,30.35,South,180,5.0,5.0,46,0.00,,,0.00,meteohub,2013-04-21 05:36:00,
2013-04-21 01:41:00,46.8,27.1,30.34,North,0,2.0,5.0,46,0.00,,,0.00,meteohub,2013-04-21 05:41:00,
2013-04-21 01:46:00,46.8,26.6,30.35,SW,225,6.0,6.0,45,0.00,,,0.00,meteohub,2013-04-21 05:46:00,
2013-04-21 01:51:00,47.1,26.8,30.35,SE,135,4.0,7.0,45,0.00,,,0.00,meteohub,2013-04-21 05:51:00,
2013-04-21 01:56:00,47.5,26.6,30.35,South,180,4.0,7.0,44,0.00,,,0.00,meteohub,2013-04-21 05:56:00,
2013-04-21 02:01:00,47.5,26.6,30.35,West,270,4.0,7.0,44,0.00,,,0.00,meteohub,2013-04-21 06:01:00,
2013-04-21 02:06:00,47.5,26.6,30.34,West,270,4.0,6.0,44,0.00,,,0.00,meteohub,2013-04-21 06:06:00,
2013-04-21 02:11:00,47.5,26.1,30.34,South,180,6.0,6.0,43,0.00,,,0.00,meteohub,2013-04-21 06:11:00,
2013-04-21 02:16:00,47.7,26.2,30.34,SW,225,7.0,7.0,43,0.00,,,0.00,meteohub,2013-04-21 06:16:00,
2013-04-21 02:21:00,47.8,25.9,30.34,West,270,4.0,10.0,42,0.00,,,0.00,meteohub,2013-04-21 06:21:00,
2013-04-21 02:26:00,47.8,25.3,30.34,NW,315,8.0,10.0,41,0.00,,,0.00,meteohub,2013-04-21 06:26:00,
2013-04-21 02:31:00,48.0,24.8,30.35,South,180,9.0,10.0,40,0.00,,,0.00,meteohub,2013-04-21 06:31:00,
2013-04-21 02:36:00,48.2,23.7,30.34,North,0,10.0,13.0,38,0.00,,,0.00,meteohub,2013-04-21 06:36:00,
2013-04-21 02:41:00,48.2,23.7,30.34,North,0,8.0,13.0,38,0.00,,,0.00,meteohub,2013-04-21 06:41:00,
2013-04-21 02:46:00,47.8,24.6,30.35,NE,45,4.0,12.0,40,0.00,,,0.00,meteohub,2013-04-21 06:46:00,
2013-04-21 02:51:00,47.5,25.5,30.35,NE,45,4.0,10.0,42,0.00,,,0.00,meteohub,2013-04-21 06:51:00,
2013-04-21 02:56:00,46.9,25.5,30.35,NE,45,5.0,10.0,43,0.00,,,0.00,meteohub,2013-04-21 06:56:00,
2013-04-21 03:01:00,46.6,25.9,30.35,WNW,293,6.0,10.0,44,0.00,,,0.00,meteohub,2013-04-21 07:01:00,
2013-04-21 03:06:00,46.0,25.3,30.36,South,180,4.0,8.0,44,0.00,,,0.00,meteohub,2013-04-21 07:06:00,
2013-04-21 03:11:00,45.5,25.3,30.36,SSE,158,2.0,8.0,45,0.00,,,0.00,meteohub,2013-04-21 07:11:00,
2013-04-21 03:16:00,45.0,25.3,30.36,SE,135,2.0,6.0,46,0.00,,,0.00,meteohub,2013-04-21 07:16:00,
2013-04-21 03:21:00,44.6,25.2,30.36,NE,45,2.0,4.0,46,0.00,,,0.00,meteohub,2013-04-21 07:21:00,
2013-04-21 03:26:00,44.2,25.3,30.37,North,0,1.0,3.0,47,0.00,,,0.00,meteohub,2013-04-21 07:26:00,
2013-04-21 03:31:00,44.2,25.3,30.37,North,0,3.0,8.0,47,0.00,,,0.00,meteohub,2013-04-21 07:31:00,
2013-04-21 03:36:00,44.2,25.3,30.37,East,90,3.0,8.0,47,0.00,,,0.00,meteohub,2013-04-21 07:36:00,
2013-04-21 03:41:00,44.6,25.2,30.37,SW,225,4.0,8.0,46,0.00,,,0.00,meteohub,2013-04-21 07:41:00,
2013-04-21 03:46:00,44.8,25.3,30.37,SW,225,3.0,5.0,46,0.00,,,0.00,meteohub,2013-04-21 07:46:00,
2013-04-21 03:51:00,44.4,25.9,30.37,East,90,1.0,5.0,48,0.00,,,0.00,meteohub,2013-04-21 07:51:00,
2013-04-21 03:56:00,43.7,26.2,30.38,North,0,2.0,4.0,50,0.00,,,0.00,meteohub,2013-04-21 07:56:00,
2013-04-21 04:01:00,43.3,26.4,30.38,NW,315,2.0,3.0,51,0.00,,,0.00,meteohub,2013-04-21 08:01:00,
2013-04-21 04:06:00,43.3,26.4,30.38,NW,315,2.0,2.0,51,0.00,,,0.00,meteohub,2013-04-21 08:06:00,
2013-04-21 04:11:00,42.4,27.0,30.38,SW,225,2.0,2.0,54,0.00,,,0.00,meteohub,2013-04-21 08:11:00,
2013-04-21 04:16:00,42.1,27.1,30.38,East,90,0.0,2.0,55,0.00,,,0.00,meteohub,2013-04-21 08:16:00,
2013-04-21 04:21:00,41.5,27.0,30.39,SW,225,0.0,2.0,56,0.00,,,0.00,meteohub,2013-04-21 08:21:00,
2013-04-21 04:26:00,40.8,27.7,30.39,West,270,1.0,2.0,59,0.00,,,0.00,meteohub,2013-04-21 08:26:00,
2013-04-21 04:31:00,39.9,28.4,30.40,West,270,2.0,2.0,63,0.00,,,0.00,meteohub,2013-04-21 08:31:00,
2013-04-21 04:36:00,39.4,28.2,30.40,South,180,2.0,2.0,64,0.00,,,0.00,meteohub,2013-04-21 08:36:00,
2013-04-21 04:41:00,38.5,28.8,30.40,South,180,3.0,3.0,68,0.00,,,0.00,meteohub,2013-04-21 08:41:00,
2013-04-21 04:46:00,38.1,28.6,30.40,South,180,2.0,3.0,68,0.00,,,0.00,meteohub,2013-04-21 08:46:00,
2013-04-21 04:51:00,37.9,28.4,30.40,West,270,1.0,3.0,68,0.00,,,0.00,meteohub,2013-04-21 08:51:00,
2013-04-21 04:56:00,37.8,28.6,30.40,SW,225,2.0,3.0,69,0.00,,,0.00,meteohub,2013-04-21 08:56:00,
2013-04-21 05:01:00,37.8,28.6,30.41,South,180,2.0,2.0,69,0.00,,,0.00,meteohub,2013-04-21 09:01:00,
2013-04-21 05:06:00,37.8,28.6,30.41,South,180,2.0,2.0,69,0.00,,,0.00,meteohub,2013-04-21 09:06:00,
2013-04-21 05:11:00,37.8,28.9,30.41,SE,135,2.0,2.0,70,0.00,,,0.00,meteohub,2013-04-21 09:11:00,
2013-04-21 05:16:00,37.8,29.1,30.42,SW,225,1.0,2.0,71,0.00,,,0.00,meteohub,2013-04-21 09:16:00,
2013-04-21 05:21:00,37.4,29.1,30.42,SW,225,1.0,2.0,72,0.00,,,0.00,meteohub,2013-04-21 09:21:00,
2013-04-21 05:26:00,37.2,28.0,30.42,SW,225,1.0,2.0,69,0.00,,,0.00,meteohub,2013-04-21 09:26:00,
2013-04-21 05:31:00,37.2,28.0,30.43,South,180,2.0,2.0,69,0.27,,,0.27,meteohub,2013-04-21 09:31:00,
2013-04-21 05:36:00,37.0,27.9,30.42,South,180,2.0,2.0,69,0.27,,,0.27,meteohub,2013-04-21 09:36:00,
2013-04-21 05:41:00,36.9,28.0,30.43,SE,135,2.0,2.0,70,0.27,,,0.27,meteohub,2013-04-21 09:41:00,
2013-04-21 05:46:00,36.9,27.3,30.44,SSW,203,2.0,2.0,68,0.27,,,0.27,meteohub,2013-04-21 09:46:00,
2013-04-21 05:51:00,36.9,27.7,30.44,North,0,1.0,2.0,69,0.27,,,0.27,meteohub,2013-04-21 09:51:00,
2013-04-21 05:56:00,36.5,28.0,30.45,West,270,2.0,2.0,71,0.27,,,0.27,meteohub,2013-04-21 09:56:00,
2013-04-21 06:01:00,36.1,27.7,30.45,South,180,1.0,2.0,71,0.27,,,0.27,meteohub,2013-04-21 10:01:00,
2013-04-21 06:06:00,36.1,27.7,30.45,South,180,1.0,2.0,71,0.27,,,0.27,meteohub,2013-04-21 10:06:00,
2013-04-21 06:11:00,35.8,27.7,30.45,South,180,2.0,2.0,72,0.27,,,0.27,meteohub,2013-04-21 10:11:00,
2013-04-21 06:16:00,35.8,27.7,30.45,South,180,2.0,2.0,72,0.27,,,0.27,meteohub,2013-04-21 10:16:00,
2013-04-21 06:21:00,35.6,27.9,30.45,SW,225,2.0,2.0,73,0.27,,,0.27,meteohub,2013-04-21 10:21:00,
2013-04-21 06:26:00,35.6,27.9,30.45,SW,225,2.0,2.0,73,0.27,,,0.27,meteohub,2013-04-21 10:26:00,
2013-04-21 06:31:00,35.8,27.7,30.45,NE,45,1.0,2.0,72,0.00,,,0.27,meteohub,2013-04-21 10:31:00,
2013-04-21 06:36:00,36.3,27.9,30.45,NE,45,4.0,4.0,71,0.00,,,0.27,meteohub,2013-04-21 10:36:00,
2013-04-21 06:41:00,36.5,28.4,30.45,SW,225,2.0,4.0,72,0.00,,,0.27,meteohub,2013-04-21 10:41:00,
2013-04-21 06:46:00,36.1,28.0,30.45,East,90,2.0,4.0,72,0.00,,,0.27,meteohub,2013-04-21 10:46:00,
2013-04-21 06:51:00,36.0,27.9,30.46,NE,45,2.0,4.0,72,0.00,,,0.27,meteohub,2013-04-21 10:51:00,
2013-04-21 06:56:00,36.0,27.9,30.47,NE,45,2.0,2.0,72,0.00,,,0.27,meteohub,2013-04-21 10:56:00,
2013-04-21 07:01:00,35.8,27.7,30.47,East,90,2.0,2.0,72,0.00,,,0.27,meteohub,2013-04-21 11:01:00,
2013-04-21 07:06:00,35.8,28.0,30.47,South,180,1.0,2.0,73,0.00,,,0.27,meteohub,2013-04-21 11:06:00,
2013-04-21 07:11:00,35.8,28.4,30.48,South,180,2.0,2.0,74,0.00,,,0.27,meteohub,2013-04-21 11:11:00,
2013-04-21 07:16:00,36.1,28.6,30.48,SW,225,0.0,2.0,74,0.00,,,0.27,meteohub,2013-04-21 11:16:00,
2013-04-21 07:21:00,36.5,28.9,30.48,North,0,1.0,2.0,74,0.00,,,0.27,meteohub,2013-04-21 11:21:00,
2013-04-21 07:26:00,36.9,29.3,30.49,North,0,0.0,2.0,74,0.00,,,0.27,meteohub,2013-04-21 11:26:00,
2013-04-21 07:31:00,37.4,30.9,30.48,NE,45,1.0,2.0,77,0.00,,,0.27,meteohub,2013-04-21 11:31:00,
2013-04-21 07:36:00,38.1,31.6,30.49,NE,45,2.0,2.0,77,0.00,,,0.27,meteohub,2013-04-21 11:36:00,
2013-04-21 07:41:00,38.8,32.0,30.50,NE,45,3.0,3.0,76,0.00,,,0.27,meteohub,2013-04-21 11:41:00,
2013-04-21 07:46:00,39.9,31.6,30.50,NE,45,2.0,3.0,72,0.00,,,0.27,meteohub,2013-04-21 11:46:00,
2013-04-21 07:51:00,40.6,32.0,30.51,West,270,1.0,3.0,71,0.00,,,0.27,meteohub,2013-04-21 11:51:00,
2013-04-21 07:56:00,41.0,31.3,30.51,NE,45,1.0,3.0,68,0.00,,,0.27,meteohub,2013-04-21 11:56:00,
2013-04-21 08:01:00,41.9,31.8,30.50,NE,45,2.0,2.0,67,0.00,,,0.27,meteohub,2013-04-21 12:01:00,
2013-04-21 08:06:00,42.8,31.8,30.51,NNW,338,3.0,3.0,65,0.00,,,0.27,meteohub,2013-04-21 12:06:00,
2013-04-21 08:11:00,44.2,32.4,30.51,NW,315,3.0,3.0,63,0.00,,,0.27,meteohub,2013-04-21 12:11:00,
2013-04-21 08:16:00,45.5,32.9,30.51,North,0,4.0,4.0,61,0.00,,,0.27,meteohub,2013-04-21 12:16:00,
2013-04-21 08:21:00,46.4,32.4,30.51,North,0,5.0,5.0,58,0.00,,,0.27,meteohub,2013-04-21 12:21:00,
2013-04-21 08:26:00,46.8,32.4,30.51,North,0,7.0,7.0,57,0.00,,,0.27,meteohub,2013-04-21 12:26:00,
2013-04-21 08:31:00,47.7,32.4,30.52,North,0,6.0,8.0,55,0.00,,,0.27,meteohub,2013-04-21 12:31:00,
2013-04-21 08:36:00,48.2,31.8,30.51,NW,315,8.0,9.0,53,0.00,,,0.27,meteohub,2013-04-21 12:36:00,
2013-04-21 08:41:00,48.6,30.2,30.51,NNW,338,7.0,9.0,49,0.00,,,0.27,meteohub,2013-04-21 12:41:00,
2013-04-21 08:46:00,48.7,29.8,30.51,NW,315,6.0,9.0,48,0.00,,,0.27,meteohub,2013-04-21 12:46:00,
2013-04-21 08:51:00,49.1,30.2,30.51,North,0,9.0,9.0,48,0.00,,,0.27,meteohub,2013-04-21 12:51:00,
2013-04-21 08:56:00,49.1,30.2,30.51,North,0,7.0,9.0,48,0.00,,,0.27,meteohub,2013-04-21 12:56:00,
2013-04-21 09:01:00,49.3,30.4,30.52,NW,315,4.0,9.0,48,0.00,,,0.27,meteohub,2013-04-21 13:01:00,
2013-04-21 09:06:00,48.9,30.0,30.52,North,0,4.0,9.0,48,0.00,,,0.27,meteohub,2013-04-21 13:06:00,
2013-04-21 09:11:00,49.5,30.6,30.52,NW,315,4.0,8.0,48,0.00,,,0.27,meteohub,2013-04-21 13:11:00,
2013-04-21 09:16:00,50.0,30.6,30.52,North,0,6.0,8.0,47,0.00,,,0.27,meteohub,2013-04-21 13:16:00,
2013-04-21 09:21:00,50.2,31.3,30.52,NE,45,8.0,8.0,48,0.00,,,0.27,meteohub,2013-04-21 13:21:00,
2013-04-21 09:26:00,50.7,30.7,30.53,NE,45,5.0,8.0,46,0.00,,,0.27,meteohub,2013-04-21 13:26:00,
2013-04-21 09:31:00,51.3,30.6,30.53,NW,315,3.0,8.0,45,0.00,,,0.27,meteohub,2013-04-21 13:31:00,
2013-04-21 09:36:00,51.3,31.1,30.53,NNW,338,6.0,8.0,46,0.00,,,0.27,meteohub,2013-04-21 13:36:00,
2013-04-21 09:41:00,51.6,30.9,30.53,East,90,6.0,8.0,45,0.00,,,0.27,meteohub,2013-04-21 13:41:00,
2013-04-21 09:46:00,52.0,31.8,30.53,West,270,5.0,7.0,46,0.00,,,0.27,meteohub,2013-04-21 13:46:00,
2013-04-21 09:51:00,52.0,32.4,30.53,SW,225,2.0,6.0,47,0.00,,,0.27,meteohub,2013-04-21 13:51:00,
2013-04-21 09:56:00,52.2,32.5,30.53,NE,45,2.0,6.0,47,0.00,,,0.27,meteohub,2013-04-21 13:56:00,
2013-04-21 10:01:00,52.5,32.9,30.53,North,0,3.0,5.0,47,0.00,,,0.27,meteohub,2013-04-21 14:01:00,
2013-04-21 10:06:00,53.1,32.9,30.53,North,0,4.0,5.0,46,0.00,,,0.27,meteohub,2013-04-21 14:06:00,
2013-04-21 10:11:00,53.4,32.5,30.53,NE,45,3.0,6.0,45,0.00,,,0.27,meteohub,2013-04-21 14:11:00,
2013-04-21 10:16:00,54.0,33.6,30.53,West,270,4.0,6.0,46,0.00,,,0.27,meteohub,2013-04-21 14:16:00,
2013-04-21 10:21:00,54.7,34.3,30.53,NE,45,3.0,6.0,46,0.00,,,0.27,meteohub,2013-04-21 14:21:00,
2013-04-21 10:26:00,55.4,34.3,30.53,East,90,4.0,6.0,45,0.00,,,0.27,meteohub,2013-04-21 14:26:00,
2013-04-21 10:31:00,55.6,35.1,30.53,NE,45,3.0,7.0,46,0.00,,,0.27,meteohub,2013-04-21 14:31:00,
2013-04-21 10:36:00,55.6,34.0,30.53,SE,135,2.0,7.0,44,0.00,,,0.27,meteohub,2013-04-21 14:36:00,
2013-04-21 10:41:00,55.8,34.2,30.54,East,90,4.0,7.0,44,0.00,,,0.27,meteohub,2013-04-21 14:41:00,
2013-04-21 10:46:00,55.9,33.8,30.53,SW,225,4.0,5.0,43,0.00,,,0.27,meteohub,2013-04-21 14:46:00,
2013-04-21 10:51:00,56.1,32.7,30.53,East,90,6.0,6.0,41,0.00,,,0.27,meteohub,2013-04-21 14:51:00,
2013-04-21 10:56:00,55.6,32.9,30.54,North,0,3.0,7.0,42,0.00,,,0.27,meteohub,2013-04-21 14:56:00,
2013-04-21 11:00:00,55.2,33.1,30.54,South,180,2.0,7.0,43,0.00,,,0.27,meteohub,2013-04-21 15:00:00,
2013-04-21 11:05:00,55.6,34.0,30.53,North,0,4.0,6.0,44,0.00,,,0.27,meteohub,2013-04-21 15:05:00,
2013-04-21 11:10:00,55.8,34.7,30.53,South,180,3.0,6.0,45,0.00,,,0.27,meteohub,2013-04-21 15:10:00,
2013-04-21 11:15:00,55.9,34.9,30.53,East,90,3.0,6.0,45,0.00,,,0.27,meteohub,2013-04-21 15:15:00,
2013-04-21 11:20:00,56.7,35.6,30.53,North,0,4.0,5.0,45,0.00,,,0.27,meteohub,2013-04-21 15:20:00,
2013-04-21 11:25:00,56.7,36.1,30.53,South,180,5.0,6.0,46,0.00,,,0.27,meteohub,2013-04-21 15:25:00,
2013-04-21 11:30:00,56.5,36.0,30.53,SE,135,3.0,7.0,46,0.00,,,0.27,meteohub,2013-04-21 15:30:00,
2013-04-21 11:35:00,55.9,34.9,30.53,South,180,4.0,7.0,45,0.00,,,0.27,meteohub,2013-04-21 15:35:00,
2013-04-21 11:40:00,55.0,34.2,30.53,NE,45,5.0,7.0,45,0.00,,,0.27,meteohub,2013-04-21 15:40:00,
2013-04-21 11:45:00,55.2,33.6,30.53,South,180,4.0,5.0,44,0.00,,,0.27,meteohub,2013-04-21 15:45:00,
2013-04-21 11:50:00,55.4,34.3,30.53,North,0,2.0,5.0,45,0.00,,,0.27,meteohub,2013-04-21 15:50:00,
2013-04-21 11:55:00,55.6,35.1,30.53,North,0,4.0,5.0,46,0.00,,,0.27,meteohub,2013-04-21 15:55:00,
2013-04-21 12:00:00,55.4,34.9,30.53,South,180,4.0,5.0,46,0.00,,,0.27,meteohub,2013-04-21 16:00:00,
2013-04-21 12:05:00,55.9,36.0,30.53,SW,225,8.0,8.0,47,0.00,,,0.27,meteohub,2013-04-21 16:05:00,
2013-04-21 12:10:00,57.2,36.7,30.53,North,0,11.0,11.0,46,0.00,,,0.27,meteohub,2013-04-21 16:10:00,
2013-04-21 12:15:00,57.2,35.4,30.53,North,0,10.0,11.0,44,0.00,,,0.27,meteohub,2013-04-21 16:15:00,
2013-04-21 12:20:00,57.4,35.1,30.53,NW,315,3.0,11.0,43,0.00,,,0.27,meteohub,2013-04-21 16:20:00,
2013-04-21 12:25:00,57.0,36.0,30.53,SW,225,3.0,11.0,45,0.00,,,0.27,meteohub,2013-04-21 16:25:00,
2013-04-21 12:30:00,57.4,36.1,30.53,SW,225,5.0,10.0,45,0.00,,,0.27,meteohub,2013-04-21 16:30:00,
2013-04-21 12:35:00,57.6,35.8,30.53,SE,135,2.0,5.0,44,0.00,,,0.27,meteohub,2013-04-21 16:35:00,
2013-04-21 12:40:00,58.3,35.2,30.52,North,0,6.0,8.0,42,0.00,,,0.27,meteohub,2013-04-21 16:40:00,
2013-04-21 12:45:00,57.9,33.1,30.52,NE,45,8.0,12.0,39,0.00,,,0.27,meteohub,2013-04-21 16:45:00,
2013-04-21 12:50:00,57.4,32.5,30.52,NW,315,8.0,12.0,39,0.00,,,0.27,meteohub,2013-04-21 16:50:00,
2013-04-21 12:55:00,57.2,33.1,30.52,East,90,6.0,12.0,40,0.00,,,0.27,meteohub,2013-04-21 16:55:00,
2013-04-21 13:00:00,57.0,34.7,30.51,NE,45,7.0,9.0,43,0.00,,,0.27,meteohub,2013-04-21 17:00:00,
2013-04-21 13:05:00,57.6,34.0,30.52,NE,45,8.0,9.0,41,0.00,,,0.27,meteohub,2013-04-21 17:05:00,
2013-04-21 13:10:00,56.8,34.0,30.51,North,0,5.0,11.0,42,0.00,,,0.27,meteohub,2013-04-21 17:10:00,
2013-04-21 13:15:00,56.7,33.3,30.51,North,0,7.0,11.0,41,0.00,,,0.27,meteohub,2013-04-21 17:15:00,
2013-04-21 13:20:00,56.5,32.4,30.51,NE,45,9.0,11.0,40,0.00,,,0.27,meteohub,2013-04-21 17:20:00,
2013-04-21 13:25:00,56.1,32.7,30.51,NE,45,6.0,11.0,41,0.00,,,0.27,meteohub,2013-04-21 17:25:00,
2013-04-21 13:30:00,56.1,32.7,30.51,NE,45,10.0,11.0,41,0.00,,,0.27,meteohub,2013-04-21 17:30:00,
2013-04-21 13:35:00,55.9,32.0,30.51,East,90,3.0,11.0,40,0.00,,,0.27,meteohub,2013-04-21 17:35:00,
2013-04-21 13:40:00,56.3,32.9,30.51,East,90,2.0,10.0,41,0.00,,,0.27,meteohub,2013-04-21 17:40:00,
2013-04-21 13:45:00,57.0,35.2,30.51,NE,45,3.0,10.0,44,0.00,,,0.27,meteohub,2013-04-21 17:45:00,
2013-04-21 13:50:00,56.5,33.1,30.51,NE,45,8.0,8.0,41,0.00,,,0.27,meteohub,2013-04-21 17:50:00,
2013-04-21 13:55:00,56.5,33.6,30.51,NE,45,7.0,8.0,42,0.00,,,0.27,meteohub,2013-04-21 17:55:00,
2013-04-21 14:00:00,57.0,34.2,30.50,East,90,5.0,8.0,42,0.00,,,0.27,meteohub,2013-04-21 18:00:00,
2013-04-21 14:05:00,57.4,33.8,30.50,NW,315,4.0,9.0,41,0.00,,,0.27,meteohub,2013-04-21 18:05:00,
2013-04-21 14:10:00,58.1,34.0,30.49,NW,315,6.0,11.0,40,0.00,,,0.27,meteohub,2013-04-21 18:10:00,
2013-04-21 14:15:00,58.1,33.3,30.49,North,0,4.0,11.0,39,0.00,,,0.27,meteohub,2013-04-21 18:15:00,
2013-04-21 14:20:00,58.5,33.6,30.50,SW,225,4.0,11.0,39,0.00,,,0.27,meteohub,2013-04-21 18:20:00,
2013-04-21 14:25:00,59.2,36.7,30.49,North,0,7.0,8.0,43,0.00,,,0.27,meteohub,2013-04-21 18:25:00,
2013-04-21 14:30:00,59.0,32.7,30.50,NE,45,2.0,8.0,37,0.00,,,0.27,meteohub,2013-04-21 18:30:00,
2013-04-21 14:35:00,59.0,32.7,30.49,NE,45,2.0,8.0,37,0.00,,,0.27,meteohub,2013-04-21 18:35:00,
2013-04-21 14:40:00,57.9,33.8,30.49,NE,45,4.0,8.0,40,0.00,,,0.27,meteohub,2013-04-21 18:40:00,
2013-04-21 14:45:00,58.3,34.0,30.48,NE,45,7.0,8.0,40,0.00,,,0.27,meteohub,2013-04-21 18:45:00,
2013-04-21 14:50:00,58.3,32.7,30.48,NE,45,3.0,8.0,38,0.00,,,0.27,meteohub,2013-04-21 18:50:00,
2013-04-21 14:55:00,57.9,33.1,30.48,SE,135,8.0,8.0,39,0.00,,,0.27,meteohub,2013-04-21 18:55:00,
2013-04-21 15:00:00,57.7,32.9,30.48,NE,45,4.0,10.0,39,0.00,,,0.27,meteohub,2013-04-21 19:00:00,
2013-04-21 15:05:00,58.3,34.0,30.49,West,270,5.0,10.0,40,0.00,,,0.27,meteohub,2013-04-21 19:05:00,
2013-04-21 15:10:00,58.3,34.0,30.48,SE,135,3.0,8.0,40,0.00,,,0.27,meteohub,2013-04-21 19:10:00,
2013-04-21 15:15:00,58.3,32.7,30.48,NE,45,5.0,8.0,38,0.00,,,0.27,meteohub,2013-04-21 19:15:00,
2013-04-21 15:20:00,59.0,32.7,30.48,NE,45,4.0,7.0,37,0.00,,,0.27,meteohub,2013-04-21 19:20:00,
2013-04-21 15:25:00,58.8,32.5,30.47,North,0,6.0,6.0,37,0.00,,,0.27,meteohub,2013-04-21 19:25:00,
2013-04-21 15:30:00,58.3,32.2,30.48,NW,315,2.0,8.0,37,0.00,,,0.27,meteohub,2013-04-21 19:30:00,
2013-04-21 15:35:00,58.5,32.9,30.48,East,90,2.0,8.0,38,0.00,,,0.27,meteohub,2013-04-21 19:35:00,
2013-04-21 15:40:00,59.4,33.8,30.47,North,0,4.0,8.0,38,0.00,,,0.27,meteohub,2013-04-21 19:40:00,
2013-04-21 15:45:00,59.7,33.4,30.47,SE,135,5.0,7.0,37,0.00,,,0.27,meteohub,2013-04-21 19:45:00,
2013-04-21 15:50:00,59.9,34.2,30.47,East,90,3.0,7.0,38,0.00,,,0.27,meteohub,2013-04-21 19:50:00,
2013-04-21 15:55:00,60.4,34.0,30.47,North,0,11.0,11.0,37,0.00,,,0.27,meteohub,2013-04-21 19:55:00,
2013-04-21 16:00:00,60.1,33.1,30.47,North,0,6.0,11.0,36,0.00,,,0.27,meteohub,2013-04-21 20:00:00,
2013-04-21 16:05:00,60.1,33.1,30.47,North,0,6.0,11.0,36,0.00,,,0.27,meteohub,2013-04-21 20:05:00,
2013-04-21 16:10:00,59.0,32.0,30.46,SE,135,5.0,11.0,36,0.00,,,0.27,meteohub,2013-04-21 20:10:00,
2013-04-21 16:15:00,58.8,34.5,30.46,SW,225,2.0,8.0,40,0.00,,,0.27,meteohub,2013-04-21 20:15:00,
2013-04-21 16:20:00,58.8,32.5,30.46,West,270,6.0,9.0,37,0.00,,,0.27,meteohub,2013-04-21 20:20:00,
2013-04-21 16:25:00,58.6,32.4,30.46,North,0,10.0,11.0,37,0.00,,,0.27,meteohub,2013-04-21 20:25:00,
2013-04-21 16:30:00,58.5,32.9,30.46,NE,45,2.0,11.0,38,0.00,,,0.27,meteohub,2013-04-21 20:30:00,
2013-04-21 16:35:00,59.0,34.2,30.46,NE,45,6.0,11.0,39,0.00,,,0.27,meteohub,2013-04-21 20:35:00,
2013-04-21 16:40:00,59.5,33.3,30.46,North,0,4.0,10.0,37,0.00,,,0.27,meteohub,2013-04-21 20:40:00,
2013-04-21 16:45:00,59.5,32.5,30.46,NNW,338,6.0,6.0,36,0.00,,,0.27,meteohub,2013-04-21 20:45:00,
2013-04-21 16:50:00,59.0,32.7,30.46,NE,45,4.0,6.0,37,0.00,,,0.27,meteohub,2013-04-21 20:50:00,
2013-04-21 16:55:00,59.0,32.7,30.46,NE,45,4.0,6.0,37,0.00,,,0.27,meteohub,2013-04-21 20:55:00,
2013-04-21 17:00:00,59.0,32.7,30.46,NE,45,4.0,6.0,37,0.00,,,0.27,meteohub,2013-04-21 21:00:00,
2013-04-21 17:05:00,58.8,33.3,30.46,South,180,5.0,5.0,38,0.00,,,0.27,meteohub,2013-04-21 21:05:00,
2013-04-21 17:10:00,58.6,33.1,30.46,NE,45,8.0,11.0,38,0.00,,,0.27,meteohub,2013-04-21 21:10:00,
2013-04-21 17:15:00,57.7,31.6,30.45,East,90,4.0,11.0,37,0.00,,,0.27,meteohub,2013-04-21 21:15:00,
2013-04-21 17:20:00,57.6,32.2,30.45,East,90,4.0,11.0,38,0.00,,,0.27,meteohub,2013-04-21 21:20:00,
2013-04-21 17:25:00,57.6,32.2,30.46,East,90,4.0,8.0,38,0.00,,,0.27,meteohub,2013-04-21 21:25:00,
2013-04-21 17:30:00,57.6,32.2,30.46,East,90,4.0,4.0,38,0.00,,,0.27,meteohub,2013-04-21 21:30:00,
2013-04-21 18:06:00,56.1,34.0,30.45,NE,45,4.0,-999.0,43,0.00,,,0.27,meteohub,2013-04-21 22:06:00,
2013-04-21 18:11:00,56.1,34.0,30.45,NE,45,4.0,4.0,43,0.00,,,0.27,meteohub,2013-04-21 22:11:00,
2013-04-21 18:16:00,55.9,33.8,30.46,North,0,6.0,6.0,43,0.00,,,0.27,meteohub,2013-04-21 22:16:00,
2013-04-21 18:21:00,55.8,34.2,30.46,North,0,5.0,7.0,44,0.00,,,0.27,meteohub,2013-04-21 22:21:00,
2013-04-21 18:26:00,55.8,34.2,30.45,North,0,5.0,7.0,44,0.00,,,0.27,meteohub,2013-04-21 22:26:00,
2013-04-21 18:31:00,55.8,34.7,30.45,NE,45,9.0,9.0,45,0.00,,,0.27,meteohub,2013-04-21 22:31:00,
2013-04-21 18:36:00,55.8,33.6,30.45,North,0,6.0,10.0,43,0.00,,,0.27,meteohub,2013-04-21 22:36:00,
2013-04-21 18:41:00,55.6,33.4,30.46,East,90,4.0,10.0,43,0.00,,,0.27,meteohub,2013-04-21 22:41:00,
2013-04-21 18:46:00,55.2,33.1,30.45,East,90,5.0,10.0,43,0.00,,,0.27,meteohub,2013-04-21 22:46:00,
2013-04-21 18:51:00,54.9,32.7,30.45,NE,45,4.0,8.0,43,0.00,,,0.27,meteohub,2013-04-21 22:51:00,
2013-04-21 18:56:00,54.7,32.5,30.45,WNW,293,7.0,11.0,43,0.00,,,0.27,meteohub,2013-04-21 22:56:00,
2013-04-21 19:01:00,54.3,32.4,30.46,NE,45,10.0,11.0,43,0.00,,,0.27,meteohub,2013-04-21 23:01:00,
2013-04-21 19:06:00,54.0,32.0,30.46,SE,135,5.0,10.0,43,0.00,,,0.27,meteohub,2013-04-21 23:06:00,
2013-04-21 19:11:00,53.8,31.8,30.46,North,0,7.0,10.0,43,0.00,,,0.27,meteohub,2013-04-21 23:11:00,
2013-04-21 19:16:00,53.6,32.2,30.46,SSW,203,6.0,10.0,44,0.00,,,0.27,meteohub,2013-04-21 23:16:00,
2013-04-21 19:21:00,53.4,32.5,30.46,NE,45,7.0,9.0,45,0.00,,,0.27,meteohub,2013-04-21 23:21:00,
2013-04-21 19:26:00,53.1,32.9,30.46,NE,45,3.0,9.0,46,0.00,,,0.27,meteohub,2013-04-21 23:26:00,
2013-04-21 19:31:00,52.7,32.5,30.46,NE,45,3.0,9.0,46,0.00,,,0.27,meteohub,2013-04-21 23:31:00,
2013-04-21 19:36:00,52.5,32.9,30.46,East,90,2.0,7.0,47,0.00,,,0.27,meteohub,2013-04-21 23:36:00,
2013-04-21 19:41:00,52.3,33.8,30.46,NW,315,1.0,3.0,49,0.00,,,0.27,meteohub,2013-04-21 23:41:00,
2013-04-21 19:46:00,51.6,35.6,30.46,West,270,2.0,3.0,54,0.00,,,0.27,meteohub,2013-04-21 23:46:00,
2013-04-21 19:51:00,50.7,35.1,30.46,NW,315,2.0,2.0,55,0.00,,,0.27,meteohub,2013-04-21 23:51:00,
2013-04-21 19:56:00,50.5,34.0,30.46,NW,315,2.0,4.0,53,0.00,,,0.27,meteohub,2013-04-21 23:56:00,
2013-04-21 20:01:00,50.4,33.8,30.46,NE,45,2.0,4.0,53,0.00,,,0.27,meteohub,2013-04-22 00:01:00,
2013-04-21 20:06:00,50.4,33.8,30.47,SW,225,2.0,4.0,53,0.00,,,0.00,meteohub,2013-04-22 00:06:00,
2013-04-21 20:11:00,49.8,35.2,30.47,SW,225,2.0,4.0,57,0.00,,,0.00,meteohub,2013-04-22 00:11:00,
2013-04-21 20:16:00,49.1,35.4,30.47,South,180,2.0,3.0,59,0.00,,,0.00,meteohub,2013-04-22 00:16:00,
2013-04-21 20:21:00,48.4,35.1,30.47,NW,315,2.0,4.0,60,0.00,,,0.00,meteohub,2013-04-22 00:21:00,
2013-04-21 20:26:00,48.4,34.3,30.47,North,0,2.0,5.0,58,0.00,,,0.00,meteohub,2013-04-22 00:26:00,
2013-04-21 20:31:00,48.9,34.3,30.48,SE,135,2.0,5.0,57,0.00,,,0.00,meteohub,2013-04-22 00:31:00,
2013-04-21 20:36:00,49.1,34.5,30.48,North,0,2.0,5.0,57,0.00,,,0.00,meteohub,2013-04-22 00:36:00,
2013-04-21 20:41:00,48.9,34.3,30.48,NE,45,2.0,5.0,57,0.00,,,0.00,meteohub,2013-04-22 00:41:00,
2013-04-21 20:46:00,48.7,34.7,30.48,North,0,3.0,3.0,58,0.00,,,0.00,meteohub,2013-04-22 00:46:00,
2013-04-21 20:51:00,48.7,34.2,30.48,South,180,3.0,6.0,57,0.00,,,0.00,meteohub,2013-04-22 00:51:00,
2013-04-21 20:56:00,48.7,34.7,30.48,SW,225,2.0,6.0,58,0.00,,,0.00,meteohub,2013-04-22 00:56:00,
2013-04-21 21:01:00,48.4,34.7,30.48,North,0,2.0,6.0,59,0.00,,,0.00,meteohub,2013-04-22 01:01:00,
2013-04-21 21:06:00,48.0,34.3,30.48,SW,225,1.0,4.0,59,0.00,,,0.00,meteohub,2013-04-22 01:06:00,
2013-04-21 21:11:00,47.7,34.5,30.49,WNW,293,2.0,4.0,60,0.00,,,0.00,meteohub,2013-04-22 01:11:00,
2013-04-21 21:16:00,47.1,35.2,30.49,SW,225,2.0,4.0,63,0.00,,,0.00,meteohub,2013-04-22 01:16:00,
2013-04-21 21:21:00,46.8,35.2,30.49,North,0,2.0,2.0,64,0.00,,,0.00,meteohub,2013-04-22 01:21:00,
2013-04-21 21:26:00,45.9,34.7,30.49,SW,225,2.0,3.0,65,0.00,,,0.00,meteohub,2013-04-22 01:26:00,
2013-04-21 21:31:00,45.1,34.5,30.49,South,180,2.0,3.0,66,0.00,,,0.00,meteohub,2013-04-22 01:31:00,
2013-04-21 21:36:00,44.8,34.5,30.50,SW,225,2.0,3.0,67,0.00,,,0.00,meteohub,2013-04-22 01:36:00,
2013-04-21 21:41:00,44.6,34.7,30.50,South,180,2.0,3.0,68,0.00,,,0.00,meteohub,2013-04-22 01:41:00,
2013-04-21 21:46:00,44.2,35.1,30.50,South,180,3.0,3.0,70,0.00,,,0.00,meteohub,2013-04-22 01:46:00,
2013-04-21 21:51:00,44.1,35.2,30.50,South,180,2.0,3.0,71,0.00,,,0.00,meteohub,2013-04-22 01:51:00,
2013-04-21 21:56:00,43.9,35.1,30.50,North,0,2.0,3.0,71,0.00,,,0.00,meteohub,2013-04-22 01:56:00,
2013-04-21 22:01:00,43.7,35.2,30.51,NE,45,2.0,3.0,72,0.00,,,0.00,meteohub,2013-04-22 02:01:00,
2013-04-21 22:06:00,43.7,35.2,30.51,West,270,2.0,3.0,72,0.00,,,0.00,meteohub,2013-04-22 02:06:00,
2013-04-21 22:11:00,43.7,35.2,30.51,SW,225,2.0,4.0,72,0.00,,,0.00,meteohub,2013-04-22 02:11:00,
2013-04-21 22:16:00,43.7,35.2,30.51,NW,315,2.0,4.0,72,0.00,,,0.00,meteohub,2013-04-22 02:16:00,
2013-04-21 22:21:00,43.7,35.2,30.51,SE,135,2.0,3.0,72,0.00,,,0.00,meteohub,2013-04-22 02:21:00,
2013-04-21 22:26:00,43.9,35.4,30.51,South,180,2.0,3.0,72,0.00,,,0.00,meteohub,2013-04-22 02:26:00,
2013-04-21 22:31:00,43.7,35.2,30.51,West,270,2.0,3.0,72,0.00,,,0.00,meteohub,2013-04-22 02:31:00,
2013-04-21 22:36:00,43.7,35.2,30.51,West,270,2.0,2.0,72,0.00,,,0.00,meteohub,2013-04-22 02:36:00,
2013-04-21 22:41:00,44.2,35.1,30.51,South,180,2.0,3.0,70,0.00,,,0.00,meteohub,2013-04-22 02:41:00,
2013-04-21 22:46:00,44.4,34.9,30.51,SW,225,2.0,3.0,69,0.00,,,0.00,meteohub,2013-04-22 02:46:00,
2013-04-21 22:51:00,45.0,34.3,30.51,SW,225,2.0,4.0,66,0.00,,,0.00,meteohub,2013-04-22 02:51:00,
2013-04-21 22:56:00,45.5,34.0,30.51,NW,315,4.0,5.0,64,0.00,,,0.00,meteohub,2013-04-22 02:56:00,
2013-04-21 23:01:00,46.0,34.5,30.51,NW,315,2.0,5.0,64,0.00,,,0.00,meteohub,2013-04-22 03:01:00,
2013-04-21 23:06:00,46.0,34.5,30.51,North,0,2.0,5.0,64,0.00,,,0.00,meteohub,2013-04-22 03:06:00,
2013-04-21 23:10:00,45.9,34.7,30.51,SW,225,2.0,5.0,65,0.00,,,0.00,meteohub,2013-04-22 03:10:00,
2013-04-21 23:15:00,45.3,33.8,30.51,North,0,2.0,5.0,64,0.00,,,0.00,meteohub,2013-04-22 03:15:00,
2013-04-21 23:20:00,45.1,34.2,30.51,South,180,2.0,4.0,65,0.00,,,0.00,meteohub,2013-04-22 03:20:00,
2013-04-21 23:25:00,44.8,33.8,30.51,North,0,3.0,4.0,65,0.00,,,0.00,meteohub,2013-04-22 03:25:00,
2013-04-21 23:30:00,45.0,33.4,30.51,SE,135,1.0,4.0,64,0.00,,,0.00,meteohub,2013-04-22 03:30:00,
2013-04-21 23:35:00,45.0,33.4,30.51,SE,135,1.0,3.0,64,0.00,,,0.00,meteohub,2013-04-22 03:35:00,
2013-04-21 23:40:00,44.8,33.8,30.50,South,180,2.0,3.0,65,0.00,,,0.00,meteohub,2013-04-22 03:40:00,
2013-04-21 23:46:00,44.4,34.2,30.50,South,180,2.0,2.0,67,0.00,,,0.00,meteohub,2013-04-22 03:46:00,
2013-04-21 23:51:00,44.2,33.6,30.50,WSW,248,2.0,2.0,66,0.00,,,0.00,meteohub,2013-04-22 03:51:00,
2013-04-21 23:56:00,44.1,33.8,30.50,East,90,2.0,2.0,67,0.00,,,0.00,meteohub,2013-04-22 03:56:00,